createdAt,value
2017-11-09T00:00:57.677Z,96.70
2017-11-09T00:03:25.344Z,96.70
2017-11-09T00:05:58.735Z,96.80
2017-11-09T00:08:26.402Z,97.00
2017-11-09T00:10:54.034Z,97.20
2017-11-09T00:13:21.659Z,97.10
2017-11-09T00:15:49.326Z,97.50
2017-11-09T00:18:16.967Z,97.30
2017-11-09T00:20:44.630Z,97.20
2017-11-09T00:23:12.260Z,96.80
2017-11-09T00:25:39.890Z,97.40
2017-11-09T00:28:07.552Z,97.70
2017-11-09T00:30:35.183Z,98.00
2017-11-09T00:33:02.837Z,98.10
2017-11-09T00:35:30.475Z,97.80
2017-11-09T00:37:58.118Z,98.00
2017-11-09T00:40:25.774Z,98.30
2017-11-09T00:42:53.407Z,98.60
2017-11-09T00:45:21.067Z,98.30
2017-11-09T00:47:48.691Z,97.30
2017-11-09T00:50:16.327Z,97.40
2017-11-09T00:52:44.755Z,98.60
2017-11-09T00:55:12.397Z,97.90
2017-11-09T00:57:40.055Z,98.20
2017-11-09T01:00:07.690Z,98.60
2017-11-09T01:02:35.328Z,98.50
2017-11-09T01:05:02.999Z,99.40
2017-11-09T01:07:30.621Z,99.90
2017-11-09T01:09:58.291Z,99.90
2017-11-09T01:12:25.970Z,99.90
2017-11-09T01:14:54.379Z,99.90
2017-11-09T01:17:22.046Z,99.90
2017-11-09T01:19:49.690Z,99.90
2017-11-09T01:22:17.368Z,99.90
2017-11-09T01:24:45.777Z,99.40
2017-11-09T01:27:13.412Z,99.40
2017-11-09T01:29:41.076Z,98.50
2017-11-09T01:32:08.716Z,99.20
2017-11-09T01:34:36.473Z,99.80
2017-11-09T01:37:04.102Z,99.80
2017-11-09T01:39:31.752Z,99.90
2017-11-09T01:41:59.428Z,99.90
2017-11-09T01:44:27.408Z,99.70
2017-11-09T01:46:55.855Z,99.90
2017-11-09T01:49:23.486Z,99.90
2017-11-09T01:51:51.123Z,99.90
2017-11-09T01:54:18.782Z,99.90
2017-11-09T01:56:46.561Z,99.90
2017-11-09T01:59:14.233Z,99.80
2017-11-09T02:01:41.882Z,99.70
2017-11-09T02:04:09.510Z,99.10
2017-11-09T02:06:37.954Z,98.60
2017-11-09T02:09:05.586Z,98.60
2017-11-09T02:11:33.242Z,98.60
2017-11-09T02:14:00.881Z,98.90
2017-11-09T02:16:28.519Z,98.90
2017-11-09T02:18:56.192Z,98.60
2017-11-09T02:21:23.837Z,98.60
2017-11-09T02:23:51.599Z,99.70
2017-11-09T02:26:20.009Z,99.10
2017-11-09T02:28:47.644Z,99.00
2017-11-09T02:31:15.303Z,99.50
2017-11-09T02:33:42.935Z,98.90
2017-11-09T02:36:10.614Z,98.80
2017-11-09T02:38:38.240Z,98.30
2017-11-09T02:41:05.882Z,97.50
2017-11-09T02:43:33.543Z,97.70
2017-11-09T02:46:01.237Z,98.00
2017-11-09T02:48:28.892Z,98.50
2017-11-09T02:50:56.536Z,98.20
2017-11-09T02:53:24.935Z,98.30
2017-11-09T02:55:52.591Z,98.30
2017-11-09T02:58:20.219Z,98.40
2017-11-09T03:00:47.873Z,98.60
2017-11-09T03:03:15.638Z,98.50
2017-11-09T03:05:43.342Z,98.20
2017-11-09T03:08:11.737Z,98.30
2017-11-09T03:10:39.365Z,98.20
2017-11-09T03:13:07.028Z,98.40
2017-11-09T03:15:34.667Z,98.10
2017-11-09T03:18:02.325Z,97.90
2017-11-09T03:20:30.024Z,97.70
2017-11-09T03:22:57.660Z,97.70
2017-11-09T03:25:25.322Z,96.80
2017-11-09T03:27:53.816Z,96.90
2017-11-09T03:30:21.493Z,96.80
2017-11-09T03:32:49.139Z,97.00
2017-11-09T03:35:16.802Z,96.90
2017-11-09T03:37:44.469Z,96.60
2017-11-09T03:40:12.109Z,96.80
2017-11-09T03:42:39.771Z,96.90
2017-11-09T03:45:07.397Z,96.60
2017-11-09T03:47:35.039Z,96.40
2017-11-09T03:50:02.696Z,95.40
2017-11-09T03:52:30.329Z,95.80
2017-11-09T03:54:57.993Z,95.80
2017-11-09T03:57:25.627Z,96.30
2017-11-09T03:59:53.250Z,96.00
2017-11-09T04:02:20.907Z,96.50
2017-11-09T04:04:48.549Z,96.20
2017-11-09T04:07:16.212Z,96.30
2017-11-09T04:09:43.848Z,96.40
2017-11-09T04:12:11.481Z,96.30
2017-11-09T04:14:39.142Z,96.90
2017-11-09T04:17:06.779Z,96.40
2017-11-09T04:19:34.428Z,97.10
2017-11-09T04:22:02.056Z,97.50
2017-11-09T04:24:29.697Z,97.40
2017-11-09T04:26:57.375Z,97.40
2017-11-09T04:29:25.328Z,97.20
2017-11-09T04:31:52.992Z,97.20
2017-11-09T04:34:20.653Z,96.90
2017-11-09T04:36:48.287Z,95.90
2017-11-09T04:39:15.951Z,95.40
2017-11-09T04:41:44.359Z,97.00
2017-11-09T04:44:12.024Z,96.80
2017-11-09T04:46:39.658Z,97.60
2017-11-09T04:49:07.291Z,96.40
2017-11-09T04:51:34.959Z,97.40
2017-11-09T04:54:02.578Z,97.40
2017-11-09T04:56:30.255Z,97.20
2017-11-09T04:58:57.897Z,97.00
2017-11-09T05:01:25.531Z,97.30
2017-11-09T05:03:53.571Z,97.80
2017-11-09T05:06:21.199Z,98.00
2017-11-09T05:08:49.636Z,96.70
2017-11-09T05:11:17.882Z,96.70
2017-11-09T05:13:46.098Z,97.50
2017-11-09T05:16:13.763Z,98.00
2017-11-09T05:18:41.402Z,97.90
2017-11-09T05:21:09.073Z,97.60
2017-11-09T05:23:36.725Z,97.20
2017-11-09T05:26:04.370Z,96.30
2017-11-09T05:28:32.028Z,96.60
2017-11-09T05:30:59.667Z,97.10
2017-11-09T05:33:27.331Z,97.60
2017-11-09T05:35:54.972Z,97.50
2017-11-09T05:38:22.607Z,97.70
2017-11-09T05:41:05.031Z,97.70
2017-11-09T05:43:33.464Z,98.00
2017-11-09T05:46:01.137Z,98.00
2017-11-09T05:48:28.763Z,98.40
2017-11-09T05:50:56.400Z,98.20
2017-11-09T05:53:24.060Z,97.70
2017-11-09T05:55:52.154Z,97.90
2017-11-09T05:58:20.591Z,98.40
2017-11-09T06:00:48.231Z,98.30
2017-11-09T06:03:15.854Z,97.80
2017-11-09T06:05:43.540Z,97.00
2017-11-09T06:08:11.167Z,96.40
2017-11-09T06:10:38.825Z,97.10
2017-11-09T06:13:06.465Z,97.30
2017-11-09T06:15:34.090Z,97.70
2017-11-09T06:18:01.752Z,97.30
2017-11-09T06:20:29.395Z,97.80
2017-11-09T06:22:57.068Z,97.70
2017-11-09T06:25:25.461Z,98.00
2017-11-09T06:27:53.083Z,98.00
2017-11-09T06:30:21.507Z,98.20
2017-11-09T06:32:49.134Z,98.20
2017-11-09T06:35:16.798Z,97.70
2017-11-09T06:37:44.423Z,97.90
2017-11-09T06:40:12.058Z,97.80
2017-11-09T06:42:39.722Z,97.80
2017-11-09T06:45:07.364Z,98.10
2017-11-09T06:47:35.596Z,98.30
2017-11-09T06:50:03.989Z,97.20
2017-11-09T06:52:31.623Z,97.10
2017-11-09T06:54:59.283Z,97.20
2017-11-09T06:57:26.911Z,97.10
2017-11-09T06:59:54.568Z,97.00
2017-11-09T07:02:22.195Z,97.00
2017-11-09T07:04:50.664Z,97.30
2017-11-09T07:07:18.334Z,97.00
2017-11-09T07:09:45.962Z,96.40
2017-11-09T07:12:13.637Z,95.70
2017-11-09T07:14:41.642Z,95.70
2017-11-09T07:17:09.268Z,96.10
2017-11-09T07:19:36.924Z,96.10
2017-11-09T07:22:04.552Z,96.20
2017-11-09T07:24:32.219Z,96.30
2017-11-09T07:26:59.852Z,96.00
2017-11-09T07:29:27.482Z,96.60
2017-11-09T07:31:55.161Z,96.20
2017-11-09T07:34:22.790Z,96.10
2017-11-09T07:36:50.470Z,95.70
2017-11-09T07:39:18.876Z,95.70
2017-11-09T07:41:46.508Z,95.70
2017-11-09T07:44:14.168Z,95.70
2017-11-09T07:46:41.804Z,95.30
2017-11-09T07:49:09.470Z,95.50
2017-11-09T07:51:37.097Z,95.60
2017-11-09T07:54:04.817Z,95.30
2017-11-09T07:56:33.248Z,95.40
2017-11-09T07:59:00.878Z,95.40
2017-11-09T08:01:28.537Z,95.30
2017-11-09T08:03:56.170Z,94.60
2017-11-09T08:06:23.801Z,94.20
2017-11-09T08:08:51.466Z,93.40
2017-11-09T08:11:19.092Z,92.90
2017-11-09T08:13:46.744Z,93.00
2017-11-09T08:16:14.368Z,93.20
2017-11-09T08:18:42.004Z,93.70
2017-11-09T08:21:10.439Z,92.70
2017-11-09T08:23:38.067Z,92.70
2017-11-09T08:26:10.779Z,93.30
2017-11-09T08:28:41.462Z,94.00
2017-11-09T08:31:10.364Z,93.90
2017-11-09T08:33:39.932Z,95.00
2017-11-09T08:36:07.567Z,94.90
2017-11-09T08:38:35.227Z,95.30
2017-11-09T08:41:02.865Z,95.20
2017-11-09T08:43:30.529Z,94.10
2017-11-09T08:45:58.158Z,93.80
2017-11-09T08:48:25.805Z,93.20
2017-11-09T08:50:53.468Z,93.60
2017-11-09T08:53:21.115Z,93.90
2017-11-09T08:55:48.777Z,93.70
2017-11-09T08:58:17.170Z,92.50
2017-11-09T09:00:44.808Z,92.40
2017-11-09T09:03:12.463Z,91.70
2017-11-09T09:05:40.088Z,91.90
2017-11-09T09:08:07.862Z,91.90
2017-11-09T09:10:35.498Z,91.30
2017-11-09T09:13:03.124Z,91.10
2017-11-09T09:15:31.563Z,91.70
2017-11-09T09:17:59.202Z,91.70
2017-11-09T09:20:27.647Z,92.20
2017-11-09T09:22:55.277Z,93.10
2017-11-09T09:25:26.526Z,93.40
2017-11-09T09:27:54.770Z,93.50
2017-11-09T09:30:22.433Z,92.90
2017-11-09T09:33:02.887Z,93.30
2017-11-09T09:35:35.208Z,93.20
2017-11-09T09:38:07.599Z,93.20
2017-11-09T09:40:35.778Z,94.10
2017-11-09T09:43:03.492Z,95.70
2017-11-09T09:45:31.124Z,96.00
2017-11-09T09:47:58.753Z,96.30
2017-11-09T09:50:26.419Z,95.80
2017-11-09T09:52:54.056Z,96.80
2017-11-09T09:55:21.736Z,96.30
2017-11-09T09:57:49.379Z,95.80
2017-11-09T10:00:17.007Z,96.30
2017-11-09T10:02:44.678Z,97.00
2017-11-09T10:05:12.321Z,96.20
2017-11-09T10:07:39.985Z,95.90
2017-11-09T10:10:07.840Z,95.00
2017-11-09T10:12:35.505Z,95.50
2017-11-09T10:15:03.163Z,94.40
2017-11-09T10:17:31.564Z,95.10
2017-11-09T10:19:59.227Z,95.10
2017-11-09T10:22:26.893Z,93.20
2017-11-09T10:24:54.523Z,94.20
2017-11-09T10:27:22.179Z,94.00
2017-11-09T10:29:49.809Z,94.00
2017-11-09T10:32:17.848Z,94.30
2017-11-09T10:34:45.475Z,93.60
2017-11-09T10:37:13.105Z,93.90
2017-11-09T10:39:41.524Z,94.70
2017-11-09T10:42:09.225Z,94.70
2017-11-09T10:44:36.895Z,94.30
2017-11-09T10:47:04.525Z,93.40
2017-11-09T10:49:32.162Z,93.20
2017-11-09T10:51:59.823Z,93.00
2017-11-09T10:54:27.463Z,93.10
2017-11-09T10:56:55.890Z,92.90
2017-11-09T10:59:23.524Z,92.90
2017-11-09T11:01:51.161Z,93.60
2017-11-09T11:04:18.818Z,94.70
2017-11-09T11:06:46.461Z,94.10
2017-11-09T11:09:14.119Z,94.20
2017-11-09T11:11:41.750Z,95.10
2017-11-09T11:14:09.389Z,95.10
2017-11-09T11:16:37.058Z,95.10
2017-11-09T11:19:04.685Z,96.10
2017-11-09T11:21:32.350Z,96.00
2017-11-09T11:24:00.006Z,96.30
2017-11-09T11:26:27.638Z,96.70
2017-11-09T11:28:55.309Z,96.70
2017-11-09T11:31:22.938Z,96.70
2017-11-09T11:33:50.605Z,97.00
2017-11-09T11:36:18.237Z,97.40
2017-11-09T11:38:45.869Z,97.40
2017-11-09T11:41:13.536Z,97.10
2017-11-09T11:43:41.159Z,95.40
2017-11-09T11:46:08.828Z,95.30
2017-11-09T11:48:36.481Z,96.10
2017-11-09T11:51:04.236Z,96.40
2017-11-09T11:53:31.891Z,96.80
2017-11-09T11:56:00.364Z,97.00
2017-11-09T11:58:28.808Z,98.10
2017-11-09T12:00:56.437Z,98.00
2017-11-09T12:03:24.066Z,97.60
2017-11-09T12:05:51.733Z,97.00
2017-11-09T12:08:19.374Z,95.80
2017-11-09T12:10:47.204Z,96.10
2017-11-09T12:13:14.855Z,97.20
2017-11-09T12:15:42.525Z,94.80
2017-11-09T12:18:10.149Z,93.90
2017-11-09T12:20:37.801Z,94.90
2017-11-09T12:23:06.900Z,94.20
2017-11-09T12:25:34.533Z,94.30
2017-11-09T12:28:02.192Z,94.40
2017-11-09T12:30:29.859Z,94.40
2017-11-09T12:32:57.485Z,93.10
2017-11-09T12:35:25.155Z,93.20
2017-11-09T12:37:53.566Z,94.00
2017-11-09T12:40:21.239Z,93.80
2017-11-09T12:42:48.877Z,93.00
2017-11-09T12:45:16.505Z,92.10
2017-11-09T12:47:44.179Z,93.20
2017-11-09T12:50:11.816Z,93.70
2017-11-09T12:52:39.488Z,93.50
2017-11-09T12:55:07.129Z,94.60
2017-11-09T12:57:34.763Z,95.00
2017-11-09T13:00:02.430Z,95.20
2017-11-09T13:02:30.848Z,95.00
2017-11-09T13:04:58.509Z,95.00
2017-11-09T13:07:26.148Z,94.40
2017-11-09T13:09:53.780Z,94.70
2017-11-09T13:12:21.445Z,95.20
2017-11-09T13:14:49.073Z,96.30
2017-11-09T13:17:16.740Z,96.80
2017-11-09T13:19:44.430Z,96.80
2017-11-09T13:22:12.055Z,96.30
2017-11-09T13:24:39.724Z,96.10
2017-11-09T13:27:08.139Z,96.10
2017-11-09T13:29:35.807Z,96.10
2017-11-09T13:32:03.441Z,95.90
2017-11-09T13:34:32.016Z,95.60
2017-11-09T13:36:59.675Z,94.90
2017-11-09T13:39:27.317Z,95.40
2017-11-09T13:41:54.987Z,94.90
2017-11-09T13:44:23.567Z,95.30
2017-11-09T13:46:51.955Z,94.50
2017-11-09T13:49:19.624Z,94.50
2017-11-09T13:51:47.251Z,95.40
2017-11-09T13:54:14.963Z,95.80
2017-11-09T13:56:42.601Z,95.80
2017-11-09T13:59:10.252Z,95.20
2017-11-09T14:01:37.916Z,95.70
2017-11-09T14:04:06.306Z,95.90
2017-11-09T14:06:33.963Z,95.90
2017-11-09T14:09:01.620Z,96.10
2017-11-09T14:11:29.256Z,96.50
2017-11-09T14:13:56.918Z,96.20
2017-11-09T14:16:24.572Z,96.20
2017-11-09T14:18:52.251Z,96.70
2017-11-09T14:21:20.646Z,97.30
2017-11-09T14:23:48.278Z,97.20
2017-11-09T14:26:16.705Z,96.60
2017-11-09T14:28:44.335Z,96.60
2017-11-09T14:31:12.002Z,96.60
2017-11-09T14:33:39.632Z,97.10
2017-11-09T14:36:07.322Z,97.20
2017-11-09T14:38:36.535Z,97.50
2017-11-09T14:41:04.204Z,97.50
2017-11-09T14:43:31.868Z,97.30
2017-11-09T14:46:00.240Z,97.70
2017-11-09T14:48:28.999Z,97.50
2017-11-09T14:50:56.728Z,97.50
2017-11-09T14:53:24.780Z,97.60
2017-11-09T14:55:52.424Z,96.90
2017-11-09T14:58:20.047Z,96.90
2017-11-09T15:00:47.699Z,96.60
2017-11-09T15:03:15.359Z,96.20
2017-11-09T15:05:42.983Z,95.90
2017-11-09T15:08:10.646Z,95.00
2017-11-09T15:10:38.267Z,95.20
2017-11-09T15:13:06.671Z,95.70
2017-11-09T15:15:40.972Z,95.70
2017-11-09T15:18:08.603Z,96.00
2017-11-09T15:20:36.266Z,95.50
2017-11-09T15:23:03.891Z,95.70
2017-11-09T15:25:31.579Z,96.20
2017-11-09T15:27:59.248Z,96.50
2017-11-09T15:30:26.877Z,96.10
2017-11-09T15:32:54.535Z,96.20
2017-11-09T15:35:22.160Z,96.40
2017-11-09T15:37:49.824Z,96.40
2017-11-09T15:40:17.471Z,96.10
2017-11-09T15:42:45.159Z,96.00
2017-11-09T15:45:13.609Z,96.10
2017-11-09T15:47:41.999Z,96.30
2017-11-09T15:50:09.651Z,96.20
2017-11-09T15:52:37.295Z,96.70
2017-11-09T15:55:04.960Z,97.10
2017-11-09T15:57:32.590Z,96.90
2017-11-09T16:00:00.240Z,96.70
2017-11-09T16:02:28.019Z,96.90
2017-11-09T16:04:55.771Z,96.30
2017-11-09T16:07:23.480Z,96.30
2017-11-09T16:09:51.110Z,95.80
2017-11-09T16:12:18.787Z,96.00
2017-11-09T16:14:46.443Z,96.00
2017-11-09T16:17:14.191Z,96.70
2017-11-09T16:19:41.978Z,97.10
2017-11-09T16:22:11.128Z,97.10
2017-11-09T16:24:38.755Z,97.00
2017-11-09T16:27:06.425Z,96.50
2017-11-09T16:29:34.155Z,97.40
2017-11-09T16:32:01.824Z,97.30
2017-11-09T16:34:29.699Z,97.60
2017-11-09T16:36:58.155Z,98.10
2017-11-09T16:39:25.776Z,98.80
2017-11-09T16:41:53.487Z,97.80
2017-11-09T16:44:21.196Z,97.20
2017-11-09T16:46:49.010Z,97.30
2017-11-09T16:49:16.704Z,97.40
2017-11-09T16:51:44.407Z,97.40
2017-11-09T16:54:12.124Z,97.60
2017-11-09T16:56:42.790Z,97.00
2017-11-09T16:59:10.537Z,97.10
2017-11-09T17:01:38.199Z,96.90
2017-11-09T17:04:05.828Z,96.70
2017-11-09T17:06:33.483Z,96.30
2017-11-09T17:09:01.105Z,95.10
2017-11-09T17:11:28.731Z,95.10
2017-11-09T17:13:56.398Z,95.40
2017-11-09T17:16:24.053Z,94.70
2017-11-09T17:18:51.703Z,94.90
2017-11-09T17:21:19.331Z,95.50
2017-11-09T17:23:46.953Z,95.40
2017-11-09T17:26:15.384Z,95.10
2017-11-09T17:28:43.043Z,95.00
2017-11-09T17:31:10.760Z,94.90
2017-11-09T17:33:38.420Z,95.40
2017-11-09T17:36:06.042Z,95.30
2017-11-09T17:38:33.713Z,95.80
2017-11-09T17:41:01.906Z,96.10
2017-11-09T17:43:30.359Z,96.20
2017-11-09T17:45:58.800Z,96.60
2017-11-09T17:48:26.453Z,96.50
2017-11-09T17:50:54.975Z,96.10
2017-11-09T17:53:22.607Z,96.20
2017-11-09T17:55:50.274Z,96.10
2017-11-09T17:58:17.908Z,96.00
2017-11-09T18:00:45.526Z,95.90
2017-11-09T18:03:13.202Z,95.90
2017-11-09T18:05:40.827Z,95.90
2017-11-09T18:08:08.480Z,96.20
2017-11-09T18:10:36.879Z,96.50
2017-11-09T18:13:04.517Z,96.50
2017-11-09T18:15:32.180Z,95.90
2017-11-09T18:17:59.800Z,95.80
2017-11-09T18:20:27.461Z,95.90
2017-11-09T18:23:02.707Z,96.00
2017-11-09T18:25:30.367Z,96.40
2017-11-09T18:27:58.000Z,96.20
2017-11-09T18:30:25.746Z,95.70
2017-11-09T18:32:53.538Z,95.90
2017-11-09T18:35:21.955Z,95.60
2017-11-09T18:37:49.616Z,95.40
2017-11-09T18:40:17.235Z,95.50
2017-11-09T18:42:44.869Z,95.50
2017-11-09T18:45:12.527Z,95.40
2017-11-09T18:47:40.151Z,95.70
2017-11-09T18:50:08.575Z,95.30
2017-11-09T18:52:36.207Z,95.30
2017-11-09T18:55:03.823Z,95.60
2017-11-09T18:57:31.475Z,96.40
2017-11-09T18:59:59.100Z,96.00
2017-11-09T19:02:27.540Z,96.30
2017-11-09T19:04:55.200Z,96.40
2017-11-09T19:07:24.029Z,96.40
2017-11-09T19:09:51.768Z,96.40
2017-11-09T19:12:19.421Z,96.20
2017-11-09T19:14:47.475Z,95.90
2017-11-09T19:17:15.967Z,95.70
2017-11-09T19:19:43.599Z,95.70
2017-11-09T19:22:11.231Z,95.80
2017-11-09T19:24:38.897Z,95.40
2017-11-09T19:27:06.536Z,95.40
2017-11-09T19:29:34.156Z,95.40
2017-11-09T19:32:01.833Z,95.60
2017-11-09T19:34:29.468Z,95.80
2017-11-09T19:36:57.100Z,95.90
2017-11-09T19:39:24.764Z,96.00
2017-11-09T19:41:52.400Z,96.10
2017-11-09T19:44:20.030Z,95.20
2017-11-09T19:46:47.700Z,95.50
2017-11-09T19:49:15.325Z,95.10
2017-11-09T19:51:42.966Z,94.80
2017-11-09T19:54:10.627Z,94.60
2017-11-09T19:56:38.268Z,95.40
2017-11-09T19:59:05.894Z,95.80
2017-11-09T20:01:33.583Z,95.30
2017-11-09T20:04:01.215Z,95.30
2017-11-09T20:06:28.841Z,95.60
2017-11-09T20:08:56.494Z,95.70
2017-11-09T20:11:24.120Z,96.00
2017-11-09T20:13:52.517Z,95.80
2017-11-09T20:16:20.181Z,95.80
2017-11-09T20:18:47.835Z,95.70
2017-11-09T20:21:15.472Z,96.10
2017-11-09T20:23:43.127Z,95.10
2017-11-09T20:26:11.307Z,95.10
2017-11-09T20:28:38.934Z,95.50
2017-11-09T20:31:06.712Z,95.30
2017-11-09T20:33:34.353Z,95.50
2017-11-09T20:36:01.990Z,96.30
2017-11-09T20:38:29.680Z,95.50
2017-11-09T20:40:57.307Z,96.60
2017-11-09T20:43:25.733Z,97.60
2017-11-09T20:45:53.360Z,97.70
2017-11-09T20:48:21.147Z,95.70
2017-11-09T20:50:49.771Z,95.60
2017-11-09T20:53:17.396Z,94.70
2017-11-09T20:55:45.834Z,94.90
2017-11-09T20:58:13.464Z,94.90
2017-11-09T21:00:41.250Z,94.60
2017-11-09T21:03:09.724Z,93.90
2017-11-09T21:05:37.367Z,93.90
2017-11-09T21:08:05.814Z,93.20
2017-11-09T21:10:34.201Z,93.20
2017-11-09T21:13:02.590Z,93.10
2017-11-09T21:15:30.240Z,92.90
2017-11-09T21:17:57.877Z,92.80
2017-11-09T21:20:25.540Z,92.30
2017-11-09T21:22:53.165Z,91.30
2017-11-09T21:25:20.792Z,91.20
2017-11-09T21:27:49.227Z,91.20
2017-11-09T21:30:16.869Z,91.00
2017-11-09T21:32:44.524Z,91.20
2017-11-09T21:35:12.217Z,90.70
2017-11-09T21:37:39.843Z,90.40
2017-11-09T21:40:08.260Z,90.20
2017-11-09T21:42:35.879Z,90.30
2017-11-09T21:45:03.549Z,89.90
2017-11-09T21:47:31.243Z,89.70
2017-11-09T21:49:59.635Z,88.30
2017-11-09T21:52:27.297Z,88.30
2017-11-09T21:54:54.926Z,88.60
2017-11-09T21:57:22.597Z,88.60
2017-11-09T21:59:50.235Z,88.70
2017-11-09T22:02:17.874Z,88.40
2017-11-09T22:04:45.533Z,88.60
2017-11-09T22:07:13.163Z,88.70
2017-11-09T22:09:40.855Z,87.80
2017-11-09T22:12:08.486Z,88.50
2017-11-09T22:14:36.271Z,87.90
2017-11-09T22:17:04.698Z,87.50
2017-11-09T22:19:32.320Z,87.50
2017-11-09T22:21:59.975Z,86.90
2017-11-09T22:24:27.638Z,87.00
2017-11-09T22:26:55.299Z,87.10
2017-11-09T22:29:23.105Z,86.60
2017-11-09T22:31:50.935Z,86.70
2017-11-09T22:34:19.522Z,86.40
2017-11-09T22:36:47.140Z,86.40
2017-11-09T22:39:15.540Z,86.70
2017-11-09T22:41:43.211Z,86.70
2017-11-09T22:44:10.881Z,87.10
2017-11-09T22:46:42.179Z,86.80
2017-11-09T22:49:09.803Z,87.00
2017-11-09T22:51:37.895Z,87.10
2017-11-09T22:54:05.543Z,87.40
2017-11-09T22:56:33.187Z,87.20
2017-11-09T22:59:00.853Z,87.10
2017-11-09T23:01:28.627Z,87.50
2017-11-09T23:03:57.036Z,87.30
2017-11-09T23:06:24.686Z,87.30
2017-11-09T23:08:52.329Z,87.30
2017-11-09T23:11:19.997Z,87.50
2017-11-09T23:13:47.628Z,87.40
2017-11-09T23:16:15.252Z,87.10
2017-11-09T23:18:44.730Z,87.40
2017-11-09T23:21:12.506Z,87.50
2017-11-09T23:23:40.186Z,87.70
2017-11-09T23:26:07.807Z,87.60
2017-11-09T23:28:35.443Z,87.00
2017-11-09T23:31:03.104Z,87.00
2017-11-09T23:33:30.832Z,87.20
2017-11-09T23:35:58.499Z,87.00
2017-11-09T23:38:26.141Z,87.40
2017-11-09T23:40:53.766Z,86.60
2017-11-09T23:43:21.423Z,86.10
2017-11-09T23:45:49.047Z,86.00
2017-11-09T23:48:16.735Z,85.70
2017-11-09T23:50:44.356Z,85.20
2017-11-09T23:53:11.982Z,85.00
2017-11-09T23:55:39.672Z,84.60
2017-11-09T23:58:07.300Z,83.90
